Time;durP1;ratioP1;P1;durP2;ratioP2;P2;SDS_P1;SDS_P2;PMS_P1;PMS_P2;Temp;Humidity;BMP_temperature;BMP_pressure;BME280_temperature;BME280_humidity;BME280_pressure;Samples;Min_cycle;Max_cycle;Signal;HPM_P1;HPM_P2
2021/03/20 00:00:44;;;;;;;6.30;3.98;;;;;;;-2.75;76.69;100880.73;1718436;80;25395;-88
2021/03/20 00:03:10;;;;;;;8.40;4.12;;;;;;;-2.73;76.78;100877.67;1747556;80;25763;-89
2021/03/20 00:05:37;;;;;;;8.93;3.75;;;;;;;-2.70;76.83;100880.55;1747647;80;25476;-87
2021/03/20 00:08:04;;;;;;;11.00;4.85;;;;;;;-2.64;76.79;100883.28;1746815;80;25658;-90
2021/03/20 00:10:30;;;;;;;6.60;3.30;;;;;;;-2.61;76.76;100886.52;1751822;80;25166;-88
2021/03/20 00:12:57;;;;;;;9.63;3.72;;;;;;;-2.62;76.57;100891.27;1746206;80;25506;-89
2021/03/20 00:15:26;;;;;;;7.53;3.92;;;;;;;-2.62;76.36;100886.58;1740467;80;25370;-89
2021/03/20 00:17:53;;;;;;;7.87;4.05;;;;;;;-2.68;76.13;100887.68;1743295;80;25604;-89
2021/03/20 00:20:30;;;;;;;9.20;4.20;;;;;;;-2.66;76.41;100891.47;1749504;80;25701;-87
2021/03/20 00:22:57;;;;;;;6.85;3.70;;;;;;;-2.66;76.35;100888.45;1744001;80;25661;-87
2021/03/20 00:25:25;;;;;;;5.28;3.90;;;;;;;-2.66;76.31;100891.01;1705932;81;25495;-89
2021/03/20 00:27:51;;;;;;;6.70;3.37;;;;;;;-2.63;76.49;100887.48;1715409;81;25295;-88
2021/03/20 00:30:19;;;;;;;8.65;4.25;;;;;;;-2.60;76.31;100889.45;1718458;81;25932;-88
2021/03/20 00:32:46;;;;;;;8.30;4.42;;;;;;;-2.64;76.18;100887.94;1748963;80;25616;-87
2021/03/20 00:35:14;;;;;;;5.37;2.80;;;;;;;-2.67;76.28;100888.08;1751418;80;25538;-87
2021/03/20 00:37:41;;;;;;;8.25;3.33;;;;;;;-2.69;76.39;100891.15;1722052;81;26234;-87
2021/03/20 00:40:12;;;;;;;7.10;4.17;;;;;;;-2.71;76.24;100892.48;1751771;80;25592;-87
2021/03/20 00:42:39;;;;;;;8.33;3.30;;;;;;;-2.73;75.99;100889.18;1747710;80;25677;-87
2021/03/20 00:45:09;;;;;;;5.37;3.08;;;;;;;-2.76;75.81;100898.70;1724447;81;27460;-86
2021/03/20 00:47:35;;;;;;;5.92;3.37;;;;;;;-2.79;75.91;100893.26;1745248;80;25618;-87
2021/03/20 00:50:04;;;;;;;4.78;3.00;;;;;;;-2.76;76.12;100898.70;1747407;80;25245;-86
2021/03/20 00:52:31;;;;;;;6.77;3.60;;;;;;;-2.72;76.09;100895.13;1727578;81;25761;-87
2021/03/20 00:54:57;;;;;;;9.28;3.65;;;;;;;-2.68;76.16;100896.63;1745628;80;25322;-87
2021/03/20 00:57:23;;;;;;;6.20;3.45;;;;;;;-2.71;75.59;100894.22;1749513;80;25644;-86
2021/03/20 00:59:49;;;;;;;6.33;3.25;;;;;;;-2.76;75.83;100900.80;1753168;80;25683;-87
2021/03/20 01:02:16;;;;;;;5.85;3.10;;;;;;;-2.76;75.72;100902.53;1744395;80;25639;-87
2021/03/20 01:04:42;;;;;;;6.40;3.08;;;;;;;-2.81;75.34;100901.89;1742606;80;25268;-87
2021/03/20 01:07:09;;;;;;;7.10;3.42;;;;;;;-2.90;75.71;100902.67;1745263;80;25558;-86
2021/03/20 01:09:35;;;;;;;7.83;3.45;;;;;;;-2.85;75.88;100903.77;1749731;80;26357;-87
2021/03/20 01:12:02;;;;;;;7.53;3.55;;;;;;;-2.84;75.74;100906.69;1754202;80;25617;-87
2021/03/20 01:14:28;;;;;;;6.53;3.55;;;;;;;-2.87;75.80;100904.27;1716355;81;25655;-88
2021/03/20 01:16:55;;;;;;;5.75;3.50;;;;;;;-2.84;75.83;100909.25;1750698;80;25202;-88
2021/03/20 01:19:21;;;;;;;7.55;3.70;;;;;;;-2.86;75.96;100905.13;1747260;80;25832;-89
2021/03/20 01:21:47;;;;;;;7.40;3.92;;;;;;;-2.87;75.97;100904.27;1750093;80;25634;-90
2021/03/20 01:24:13;;;;;;;7.80;4.00;;;;;;;-2.84;76.05;100902.03;1727149;80;25343;-89
2021/03/20 01:26:39;;;;;;;8.38;3.95;;;;;;;-2.81;76.06;100907.02;1755366;80;25229;-90
2021/03/20 01:29:06;;;;;;;7.90;3.90;;;;;;;-2.74;76.32;100902.85;1753599;80;25244;-89
2021/03/20 01:31:32;;;;;;;8.45;4.17;;;;;;;-2.68;76.21;100904.31;1753648;80;25680;-90
2021/03/20 01:33:59;;;;;;;9.53;4.12;;;;;;;-2.65;76.10;100896.95;1752738;80;25774;-89
2021/03/20 01:36:25;;;;;;;6.80;3.83;;;;;;;-2.58;76.21;100907.31;1752204;80;25247;-90
2021/03/20 01:38:52;;;;;;;10.70;4.80;;;;;;;-2.55;75.84;100903.33;1754048;80;25250;-90
2021/03/20 01:41:24;;;;;;;7.72;3.95;;;;;;;-2.57;75.90;100902.11;1749648;79;25591;-90
2021/03/20 01:43:52;;;;;;;8.48;3.77;;;;;;;-2.57;75.89;100907.22;1749207;80;25615;-89
2021/03/20 01:46:49;;;;;;;7.15;3.77;;;;;;;-2.62;75.87;100913.44;1747922;80;25689;-90
2021/03/20 01:49:27;;;;;;;8.28;4.12;;;;;;;-2.67;75.97;100909.83;1740120;80;25644;-90
2021/03/20 01:52:14;;;;;;;8.38;4.15;;;;;;;-2.67;76.02;100916.22;1747847;80;25214;-90
2021/03/20 01:55:09;;;;;;;7.28;3.92;;;;;;;-2.71;76.08;100912.95;1711763;82;25283;-90
2021/03/20 01:57:50;;;;;;;9.70;5.10;;;;;;;-2.72;76.29;100924.54;1709874;83;25725;-90
2021/03/20 02:00:36;;;;;;;6.40;4.05;;;;;;;-2.72;76.42;100923.27;1707837;82;25654;-90
2021/03/20 02:03:10;;;;;;;9.10;4.47;;;;;;;-2.69;76.42;100923.12;1704337;82;25752;-90
2021/03/20 02:05:37;;;;;;;8.30;4.30;;;;;;;-2.73;76.21;100918.60;1700542;83;25384;-89
2021/03/20 02:08:07;;;;;;;10.70;4.37;;;;;;;-2.77;76.16;100923.45;1709868;82;25283;-90
2021/03/20 02:10:37;;;;;;;11.28;5.20;;;;;;;-2.74;76.27;100924.59;1704403;82;25298;-89
2021/03/20 02:13:40;;;;;;;8.75;3.60;;;;;;;-2.75;76.19;100918.28;1708703;82;25830;-90
2021/03/20 02:16:24;;;;;;;9.38;4.40;;;;;;;-2.72;76.21;100925.37;1696217;83;25309;-90
2021/03/20 02:19:04;;;;;;;9.63;4.45;;;;;;;-2.70;76.22;100922.30;1695180;82;25338;-90
2021/03/20 02:21:39;;;;;;;9.25;4.08;;;;;;;-2.68;76.03;100928.61;1617214;87;25422;-88
2021/03/20 02:24:16;;;;;;;10.72;4.65;;;;;;;-2.74;75.64;100929.70;1619296;87;25293;-90
2021/03/20 02:27:33;;;;;;;9.05;4.45;;;;;;;-2.78;75.75;100930.75;1618164;87;25579;-89
2021/03/20 02:30:36;;;;;;;8.75;4.25;;;;;;;-2.78;75.86;100929.47;1620181;87;25613;-90
2021/03/20 02:33:17;;;;;;;9.35;4.30;;;;;;;-2.74;75.68;100937.84;1641197;85;25679;-90
2021/03/20 02:35:57;;;;;;;9.45;4.60;;;;;;;-2.75;75.72;100935.73;1638976;85;25340;-90
2021/03/20 02:38:59;;;;;;;10.18;4.65;;;;;;;-2.74;75.62;100938.66;1619286;86;25362;-91
2021/03/20 02:41:50;;;;;;;9.13;4.10;;;;;;;-2.75;75.29;100938.75;1573472;90;25818;-91
2021/03/20 02:44:27;;;;;;;11.00;4.95;;;;;;;-2.75;75.44;100940.02;1556833;90;25762;-89
2021/03/20 02:47:02;;;;;;;10.48;4.15;;;;;;;-2.72;75.07;100939.44;1555975;90;25718;-90
2021/03/20 02:49:49;;;;;;;7.45;4.03;;;;;;;-2.73;75.19;100942.05;1555616;90;25610;-88
2021/03/20 02:52:43;;;;;;;10.08;4.62;;;;;;;-2.72;75.15;100943.27;1554314;91;25266;-90
2021/03/20 02:55:21;;;;;;;7.87;4.33;;;;;;;-2.69;75.13;100943.14;1557203;90;25830;-89
2021/03/20 02:58:19;;;;;;;12.18;4.53;;;;;;;-2.69;75.02;100950.81;1568183;87;25768;-88
2021/03/20 03:00:51;;;;;;;11.50;3.95;;;;;;;-2.67;75.11;100954.59;1594665;88;25367;-88
2021/03/20 03:03:18;;;;;;;12.65;4.87;;;;;;;-2.66;74.75;100960.54;1615315;87;25504;-88
2021/03/20 03:05:56;;;;;;;9.93;4.15;;;;;;;-2.66;74.74;100957.98;1613663;87;25327;-88
2021/03/20 03:08:34;;;;;;;9.40;4.80;;;;;;;-2.66;74.65;100964.38;1612369;87;26243;-88
2021/03/20 03:11:13;;;;;;;6.50;3.80;;;;;;;-2.73;74.20;100962.51;1609663;87;25792;-89
2021/03/20 03:13:45;;;;;;;11.28;4.47;;;;;;;-2.75;74.51;100965.15;1587840;87;25673;-89
2021/03/20 03:16:35;;;;;;;8.13;4.53;;;;;;;-2.75;73.74;100967.71;1691616;80;25703;-89
2021/03/20 03:19:09;;;;;;;10.90;4.17;;;;;;;-2.78;73.72;100978.08;1737566;81;25650;-89
2021/03/20 03:21:40;;;;;;;8.18;4.05;;;;;;;-2.80;74.08;100978.58;1739105;80;25578;-89
2021/03/20 03:24:09;;;;;;;10.82;4.22;;;;;;;-2.77;73.60;100973.78;1738136;80;25646;-88
2021/03/20 03:26:40;;;;;;;8.58;4.72;;;;;;;-2.80;73.74;100978.58;1731441;81;25240;-88
2021/03/20 03:29:18;;;;;;;10.18;5.20;;;;;;;-2.80;73.53;100976.47;1734157;80;25200;-89
2021/03/20 03:32:07;;;;;;;8.15;4.28;;;;;;;-2.85;73.23;100977.94;1736330;80;25500;-89
2021/03/20 03:34:45;;;;;;;11.95;5.37;;;;;;;-2.88;73.40;100975.51;1732919;81;25661;-89
2021/03/20 03:37:42;;;;;;;9.00;4.37;;;;;;;-2.85;73.68;100984.78;1728376;82;25270;-83
2021/03/20 03:40:16;;;;;;;9.03;4.92;;;;;;;-2.84;73.50;100983.88;1738280;80;25516;-82
2021/03/20 03:42:43;;;;;;;9.45;4.45;;;;;;;-2.84;73.65;100988.99;1738050;80;25823;-83
2021/03/20 03:45:14;;;;;;;11.22;4.97;;;;;;;-2.88;73.68;100992.59;1730985;81;25819;-84
2021/03/20 03:47:41;;;;;;;7.25;4.45;;;;;;;-2.92;73.61;100995.70;1739747;80;25632;-84
2021/03/20 03:50:16;;;;;;;11.00;4.53;;;;;;;-2.93;73.46;101000.44;1738028;80;25211;-89
2021/03/20 03:52:43;;;;;;;7.45;4.10;;;;;;;-2.96;73.37;101004.41;1735283;81;25296;-89
2021/03/20 03:55:10;;;;;;;7.80;3.92;;;;;;;-2.99;73.02;101006.63;1739469;80;25673;-89
2021/03/20 03:58:14;;;;;;;9.68;3.95;;;;;;;-3.07;73.01;101011.23;1740476;80;25621;-90
2021/03/20 04:00:57;;;;;;;8.50;4.53;;;;;;;-3.12;73.11;101013.13;1741639;80;25648;-89
2021/03/20 04:03:57;;;;;;;8.00;4.08;;;;;;;-3.14;73.20;101014.49;1740488;80;25277;-89
2021/03/20 04:06:44;;;;;;;6.42;3.77;;;;;;;-3.15;73.54;101019.20;1732473;80;25281;-89
2021/03/20 04:09:30;;;;;;;11.63;5.22;;;;;;;-3.19;73.23;101012.56;1735370;80;25211;-89
2021/03/20 04:12:08;;;;;;;9.28;4.28;;;;;;;-3.23;73.30;101010.17;1736629;80;26093;-88
2021/03/20 04:14:49;;;;;;;9.08;4.42;;;;;;;-3.24;73.60;101010.63;1739408;80;25571;-88
2021/03/20 04:17:32;;;;;;;9.43;4.33;;;;;;;-3.24;73.64;101011.91;1734650;80;25446;-90
2021/03/20 04:20:22;;;;;;;8.93;3.80;;;;;;;-3.22;73.74;101016.52;1737163;80;25347;-91
2021/03/20 04:22:56;;;;;;;7.70;3.77;;;;;;;-3.25;73.42;101014.51;1733016;80;25281;-90
2021/03/20 04:25:50;;;;;;;7.95;3.83;;;;;;;-3.34;73.32;101015.70;1735751;82;25230;-87
2021/03/20 04:28:48;;;;;;;10.10;4.17;;;;;;;-3.38;73.65;101020.56;1737363;80;25595;-90
2021/03/20 04:31:51;;;;;;;9.53;4.28;;;;;;;-3.37;73.64;101024.33;1738843;80;25278;-90
2021/03/20 04:34:50;;;;;;;10.28;4.53;;;;;;;-3.40;73.70;101027.00;1735172;80;25259;-90
2021/03/20 04:37:20;;;;;;;7.45;4.53;;;;;;;-3.39;73.85;101023.99;1735057;80;25697;-90
2021/03/20 04:39:50;;;;;;;6.92;3.72;;;;;;;-3.36;73.88;101028.56;1736908;80;25480;-89
2021/03/20 04:42:27;;;;;;;9.20;4.25;;;;;;;-3.30;73.89;101032.60;1737303;80;25713;-89
2021/03/20 04:44:56;;;;;;;5.25;3.33;;;;;;;-3.30;73.82;101032.60;1733507;80;25612;-89
2021/03/20 04:47:28;;;;;;;10.30;5.25;;;;;;;-3.32;73.65;101037.38;1738498;82;25215;-87
2021/03/20 04:50:14;;;;;;;10.40;4.92;;;;;;;-3.35;73.31;101027.66;1736693;80;25623;-89
2021/03/20 04:52:45;;;;;;;7.42;4.00;;;;;;;-3.36;73.62;101031.53;1731912;80;25580;-88
2021/03/20 04:55:14;;;;;;;8.55;4.25;;;;;;;-3.36;73.54;101036.65;1737264;81;25551;-89
2021/03/20 04:58:03;;;;;;;10.13;4.22;;;;;;;-3.38;73.49;101039.28;1733808;80;25209;-89
2021/03/20 05:00:38;;;;;;;7.75;4.17;;;;;;;-3.37;73.62;101038.83;1737684;80;25594;-88
2021/03/20 05:03:12;;;;;;;9.33;4.30;;;;;;;-3.35;73.36;101044.72;1740153;80;25533;-88
2021/03/20 05:05:44;;;;;;;11.73;4.53;;;;;;;-3.35;73.44;101047.28;1734598;80;25503;-88
2021/03/20 05:08:16;;;;;;;7.28;4.42;;;;;;;-3.33;73.52;101049.30;1733404;80;25842;-87
2021/03/20 05:11:14;;;;;;;7.55;4.00;;;;;;;-3.29;73.46;101060.27;1733494;80;25377;-88
2021/03/20 05:13:52;;;;;;;7.10;4.08;;;;;;;-3.25;73.43;101062.62;1739969;80;25527;-88
2021/03/20 05:16:24;;;;;;;9.28;4.05;;;;;;;-3.24;73.13;101055.81;1733573;82;25675;-88
2021/03/20 05:18:53;;;;;;;9.18;4.10;;;;;;;-3.27;72.89;101064.42;1735459;81;25548;-87
2021/03/20 05:21:24;;;;;;;10.78;4.97;;;;;;;-3.28;73.01;101064.47;1738371;80;26565;-87
2021/03/20 05:23:51;;;;;;;10.38;4.25;;;;;;;-3.29;72.74;101066.66;1738121;80;25513;-91
2021/03/20 05:26:18;;;;;;;7.90;4.10;;;;;;;-3.27;72.92;101059.77;1733879;82;25208;-90
2021/03/20 05:28:44;;;;;;;11.68;4.37;;;;;;;-3.26;72.60;101070.36;1715560;81;25436;-90
2021/03/20 05:31:10;;;;;;;8.20;4.33;;;;;;;-3.25;72.69;101075.85;1740386;80;25269;-90
2021/03/20 05:33:43;;;;;;;8.83;4.22;;;;;;;-3.25;72.84;101070.73;1735934;82;25595;-90
2021/03/20 05:36:09;;;;;;;8.70;4.62;;;;;;;-3.22;72.93;101077.01;1736270;80;25452;-90
2021/03/20 05:38:36;;;;;;;8.78;5.12;;;;;;;-3.21;72.51;101075.69;1737113;80;25241;-90
2021/03/20 05:41:17;;;;;;;10.30;4.65;;;;;;;-3.20;72.61;101079.89;1739085;80;25209;-90
2021/03/20 05:44:09;;;;;;;;;;;;;;;-3.19;72.32;101079.48;1656536;85;25274;-90
2021/03/20 05:46:52;;;;;;;7.97;4.40;;;;;;;-3.19;72.49;101084.14;1657192;85;25602;-91
2021/03/20 05:50:00;;;;;;;10.53;4.80;;;;;;;-3.15;72.55;101086.94;1657699;85;25306;-90
2021/03/20 05:52:44;;;;;;;10.82;4.78;;;;;;;-3.14;72.17;101083.52;1656502;85;25340;-90
2021/03/20 05:55:33;;;;;;;10.48;5.20;;;;;;;-3.11;72.18;101092.80;1654412;85;25266;-89
2021/03/20 05:58:24;;;;;;;9.88;5.28;;;;;;;-3.10;71.90;101088.50;1658155;84;26142;-90
2021/03/20 06:01:07;;;;;;;11.65;5.47;;;;;;;-3.20;71.51;101070.95;1656563;84;25582;-88
2021/03/20 06:03:53;;;;;;;11.43;4.90;;;;;;;-3.13;71.61;101094.12;1656726;85;25918;-89
2021/03/20 06:06:44;;;;;;;8.30;4.25;;;;;;;-3.07;71.71;101098.61;1598582;88;25557;-89
2021/03/20 06:09:56;;;;;;;7.50;4.70;;;;;;;-3.01;71.52;101103.48;1598790;88;25777;-89
2021/03/20 06:12:50;;;;;;;8.05;4.03;;;;;;;-3.00;71.23;101112.80;1556620;90;25871;-89
2021/03/20 06:15:54;;;;;;;9.85;4.80;;;;;;;-2.99;71.06;101102.98;1550350;90;25632;-89
2021/03/20 06:18:40;;;;;;;10.53;5.22;;;;;;;-3.03;70.98;101108.67;1565726;90;25404;-90
2021/03/20 06:21:21;;;;;;;11.80;5.00;;;;;;;-3.05;70.41;101111.72;1591214;87;25343;-90
2021/03/20 06:24:27;;;;;;;9.73;4.47;;;;;;;-3.07;70.50;101102.44;1654795;84;25456;-89
2021/03/20 06:26:55;;;;;;;9.73;4.83;;;;;;;-3.03;71.12;101109.95;1606248;87;25784;-91
2021/03/20 06:29:37;;;;;;;10.15;4.87;;;;;;;-2.94;71.01;101113.86;1637764;85;25724;-90
2021/03/20 06:32:15;;;;;;;8.50;4.47;;;;;;;-2.96;70.75;101109.25;1639402;85;25311;-90
2021/03/20 06:34:53;;;;;;;10.88;5.03;;;;;;;-2.91;70.27;101116.30;1657155;84;25305;-90
2021/03/20 06:37:27;;;;;;;12.65;5.05;;;;;;;-2.93;69.95;101113.79;1650576;85;25289;-90
2021/03/20 06:40:22;;;;;;;8.43;4.00;;;;;;;-2.93;70.54;101115.06;1648145;85;25292;-89
2021/03/20 06:42:50;;;;;;;11.15;5.30;;;;;;;-2.88;70.51;101125.58;1662177;82;25841;-88
2021/03/20 06:45:29;;;;;;;11.45;5.00;;;;;;;-2.84;70.55;101122.81;1699812;82;25283;-89
2021/03/20 06:48:13;;;;;;;9.68;5.28;;;;;;;-2.84;70.61;101122.81;1700794;82;25249;-88
2021/03/20 06:50:55;;;;;;;11.78;5.33;;;;;;;-2.71;71.06;101125.73;1698105;82;25239;-88
2021/03/20 06:53:36;;;;;;;9.25;4.87;;;;;;;-2.68;69.74;101128.16;1701762;82;25826;-87
2021/03/20 06:56:06;;;;;;;10.32;5.00;;;;;;;-2.71;69.95;101130.40;1700922;82;25810;-88
2021/03/20 06:58:36;;;;;;;11.63;4.95;;;;;;;-2.69;69.64;101139.30;1700412;82;25613;-88
2021/03/20 07:01:36;;;;;;;8.55;4.75;;;;;;;-2.71;69.69;101134.23;1703625;82;25466;-89
2021/03/20 07:04:29;;;;;;;9.30;4.58;;;;;;;-2.64;69.31;101139.95;1700763;82;25328;-88
2021/03/20 07:07:26;;;;;;;8.88;4.75;;;;;;;-2.62;69.66;101135.62;1703304;81;25257;-88
2021/03/20 07:09:55;;;;;;;9.33;4.80;;;;;;;-2.59;69.56;101138.47;1699659;82;25767;-88
2021/03/20 07:12:24;;;;;;;13.53;5.12;;;;;;;-2.55;69.01;101139.58;1703386;82;25729;-89
2021/03/20 07:14:56;;;;;;;13.28;5.35;;;;;;;-2.55;68.93;101139.58;1731894;80;34873;-89
2021/03/20 07:17:34;;;;;;;11.75;4.90;;;;;;;-2.52;69.67;101140.73;1751837;80;25272;-88
2021/03/20 07:20:15;;;;;;;10.93;5.03;;;;;;;-2.43;69.60;101138.69;1753786;80;25210;-89
2021/03/20 07:22:46;;;;;;;11.18;5.50;;;;;;;-2.36;69.18;101143.50;1753027;80;25649;-88
2021/03/20 07:25:35;;;;;;;7.97;4.30;;;;;;;-2.33;69.50;101139.53;1753316;80;25287;-88
2021/03/20 07:28:16;;;;;;;9.37;4.50;;;;;;;-2.31;68.65;101140.77;1695676;81;25626;-87
2021/03/20 07:31:00;;;;;;;10.32;4.40;;;;;;;-2.32;68.75;101154.44;1748439;80;25555;-87
2021/03/20 07:33:34;;;;;;;10.40;4.90;;;;;;;-2.32;68.79;101156.58;1754893;80;25257;-88
2021/03/20 07:36:36;;;;;;;13.28;4.87;;;;;;;-2.31;68.84;101160.79;1753235;80;25735;-87
2021/03/20 07:39:18;;;;;;;15.35;5.65;;;;;;;-2.32;68.60;101162.13;1746912;79;25274;-87
2021/03/20 07:41:53;;;;;;;10.48;5.80;;;;;;;-2.29;68.92;101167.97;1750408;80;25748;-87
2021/03/20 07:44:22;;;;;;;8.75;4.37;;;;;;;-2.27;68.61;101167.44;1749847;80;25240;-87
2021/03/20 07:46:49;;;;;;;9.35;4.95;;;;;;;-2.21;68.41;101165.52;1753221;80;25644;-87
2021/03/20 07:49:23;;;;;;;11.53;5.00;;;;;;;-2.17;68.82;101173.02;1746601;80;26525;-87
2021/03/20 07:51:57;;;;;;;14.07;5.62;;;;;;;-2.16;68.28;101172.57;1746244;80;25674;-87
2021/03/20 07:54:34;;;;;;;12.25;6.50;;;;;;;-2.17;68.59;101169.19;1750882;80;25755;-87
2021/03/20 07:57:11;;;;;;;12.80;7.35;;;;;;;-2.12;68.63;101176.23;1749229;80;25509;-87
2021/03/20 07:59:51;;;;;;;12.35;6.05;;;;;;;-2.09;68.50;101176.10;1718505;81;25479;-86
2021/03/20 08:02:36;;;;;;;12.82;5.97;;;;;;;-2.06;68.25;101173.86;1719186;81;25640;-86
2021/03/20 08:05:14;;;;;;;19.92;10.48;;;;;;;-2.09;67.73;101183.78;1719601;81;25166;-88
2021/03/20 08:07:48;;;;;;;17.60;9.30;;;;;;;-2.07;68.33;101181.17;1752179;80;25722;-87
2021/03/20 08:10:26;;;;;;;17.50;8.03;;;;;;;-1.95;68.20;101185.77;1751745;80;25696;-87
2021/03/20 08:13:19;;;;;;;11.43;5.42;;;;;;;-1.89;67.98;101183.39;1750434;80;25480;-87
2021/03/20 08:15:53;;;;;;;10.23;4.78;;;;;;;-1.82;67.61;101197.62;1752045;80;25559;-88
2021/03/20 08:18:32;;;;;;;11.28;4.30;;;;;;;-1.75;67.31;101195.16;1750823;80;25236;-88
2021/03/20 08:21:19;;;;;;;10.85;5.75;;;;;;;-1.72;67.21;101196.77;1755565;80;25241;-86
2021/03/20 08:24:29;;;;;;;11.08;4.97;;;;;;;-1.64;67.69;101191.72;1753852;80;25705;-88
2021/03/20 08:27:17;;;;;;;11.55;4.62;;;;;;;-1.54;66.74;101184.90;1715557;81;25232;-87
2021/03/20 08:30:07;;;;;;;10.95;5.17;;;;;;;-1.40;67.04;101192.81;1713796;81;25894;-86
2021/03/20 08:33:05;;;;;;;12.58;5.72;;;;;;;-1.37;66.07;101197.34;1715179;81;25414;-86
2021/03/20 08:35:36;;;;;;;9.93;4.53;;;;;;;-1.31;65.52;101200.55;1666319;84;25741;-87
2021/03/20 08:38:39;;;;;;;11.63;6.03;;;;;;;-1.27;66.38;101200.34;1665275;84;25490;-85
2021/03/20 08:41:50;;;;;;;9.25;4.92;;;;;;;-1.17;66.16;101212.32;1663315;84;25550;-86
2021/03/20 08:44:34;;;;;;;8.43;5.10;;;;;;;-1.12;64.68;101209.93;1661288;83;26225;-86
2021/03/20 08:47:22;;;;;;;9.55;4.72;;;;;;;-1.08;63.95;101208.05;1658833;84;25763;-87
2021/03/20 08:49:59;;;;;;;7.50;3.80;;;;;;;-1.08;63.92;101212.36;1661381;84;25447;-87
2021/03/20 08:52:34;;;;;;;9.60;4.95;;;;;;;-1.02;64.42;101210.33;1662860;84;25511;-90
2021/03/20 08:55:17;;;;;;;11.28;5.87;;;;;;;-0.86;63.79;101204.05;1660786;83;25305;-86
2021/03/20 08:58:07;;;;;;;11.10;5.17;;;;;;;-0.71;63.38;101207.20;1662879;84;25759;-86
2021/03/20 09:00:56;;;;;;;12.00;5.67;;;;;;;-0.76;62.09;101213.00;1637165;84;25342;-86
2021/03/20 09:03:39;;;;;;;9.03;5.20;;;;;;;-0.76;62.76;101213.00;1632594;85;34889;-86
2021/03/20 09:06:31;;;;;;;12.70;5.30;;;;;;;-0.62;61.18;101211.53;1662727;84;25319;-88
2021/03/20 09:09:11;;;;;;;9.93;4.70;;;;;;;-0.61;62.29;101216.57;1662127;84;25631;-88
2021/03/20 09:11:52;;;;;;;10.80;5.05;;;;;;;-0.47;62.97;101214.63;1711497;80;25694;-87
2021/03/20 09:14:29;;;;;;;17.80;7.95;;;;;;;-0.40;60.60;101221.61;1750193;80;25682;-89
2021/03/20 09:17:03;;;;;;;11.55;5.00;;;;;;;-0.45;61.52;101217.52;1751215;80;25249;-87
2021/03/20 09:19:40;;;;;;;9.68;4.42;;;;;;;-0.33;60.78;101225.53;1747443;80;25991;-88
2021/03/20 09:22:11;;;;;;;11.33;6.08;;;;;;;-0.30;61.13;101220.23;1724761;80;25326;-88
2021/03/20 09:24:45;;;;;;;14.20;6.75;;;;;;;-0.35;58.89;101217.09;1744281;80;25680;-82
2021/03/20 09:27:13;;;;;;;9.30;4.80;;;;;;;-0.29;60.33;101225.32;1743687;80;25399;-83
2021/03/20 09:29:45;;;;;;;14.47;7.20;;;;;;;-0.27;60.48;101223.97;1746506;80;25234;-87
2021/03/20 09:32:14;;;;;;;24.82;8.95;;;;;;;-0.28;59.80;101217.16;1740118;80;25527;-89
2021/03/20 09:34:45;;;;;;;13.45;8.15;;;;;;;-0.29;58.80;101229.63;1749954;80;25269;-89
2021/03/20 09:37:23;;;;;;;10.95;4.30;;;;;;;-0.33;58.32;101231.95;1745241;80;25642;-89
2021/03/20 09:39:57;;;;;;;9.60;5.33;;;;;;;-0.34;59.36;101225.98;1750290;80;25371;-87
2021/03/20 09:42:30;;;;;;;18.02;8.15;;;;;;;-0.29;57.68;101233.02;1747546;80;25659;-88
2021/03/20 09:45:14;;;;;;;14.20;6.30;;;;;;;-0.34;57.70;101236.27;1749049;80;25633;-87
2021/03/20 09:47:57;;;;;;;11.53;6.40;;;;;;;-0.33;57.26;101245.65;1742847;80;25710;-88
2021/03/20 09:50:29;;;;;;;19.70;9.90;;;;;;;-0.42;57.25;101247.34;1742785;80;25731;-87
2021/03/20 09:53:09;;;;;;;8.33;5.20;;;;;;;-0.38;58.46;101243.75;1746322;80;25934;-88
2021/03/20 09:55:45;;;;;;;8.83;4.72;;;;;;;-0.31;56.99;101241.70;1717503;81;39130;-88
2021/03/20 09:58:26;;;;;;;8.33;3.50;;;;;;;-0.18;58.10;101241.50;1740527;81;25691;-89
2021/03/20 10:00:58;;;;;;;10.40;5.35;;;;;;;0.14;59.24;101237.81;1741426;80;25790;-88
2021/03/20 10:03:50;;;;;;;11.15;5.70;;;;;;;0.28;56.75;101240.98;1740319;79;26159;-88
2021/03/20 10:06:37;;;;;;;9.75;5.37;;;;;;;0.30;55.32;101247.72;1689147;83;25319;-88
2021/03/20 10:09:20;;;;;;;7.37;3.92;;;;;;;0.28;55.71;101254.66;1689318;83;25657;-88
2021/03/20 10:11:58;;;;;;;13.53;5.08;;;;;;;0.30;57.05;101240.43;1670211;84;25339;-87
2021/03/20 10:14:38;;;;;;;8.23;3.70;;;;;;;0.41;55.16;101245.89;1684788;82;25620;-88
2021/03/20 10:17:10;;;;;;;12.65;5.80;;;;;;;0.38;54.60;101248.59;1685449;83;25753;-88
2021/03/20 10:19:47;;;;;;;5.85;3.52;;;;;;;0.36;55.32;101251.72;1681595;83;25751;-88
2021/03/20 10:22:30;;;;;;;6.37;3.42;;;;;;;0.39;54.19;101250.27;1684587;83;25487;-88
2021/03/20 10:24:57;;;;;;;7.67;3.83;;;;;;;0.45;56.54;101221.66;1684219;83;25803;-88
2021/03/20 10:27:32;;;;;;;14.55;6.40;;;;;;;0.45;56.54;101221.66;1684150;83;25579;-88
2021/03/20 10:30:23;;;;;;;6.55;3.05;;;;;;;0.60;55.71;101246.61;1661443;83;27142;-90
2021/03/20 10:33:06;;;;;;;9.60;3.92;;;;;;;0.53;54.67;101241.85;1684135;83;25337;-88
2021/03/20 10:35:38;;;;;;;8.10;3.92;;;;;;;0.49;54.95;101237.33;1684475;83;25527;-87
2021/03/20 10:38:24;;;;;;;7.78;3.62;;;;;;;0.55;54.96;101242.16;1685861;83;25744;-89
2021/03/20 10:41:05;;;;;;;5.80;3.52;;;;;;;0.63;53.61;101233.58;1663331;84;25648;-89
2021/03/20 10:43:39;;;;;;;8.50;3.95;;;;;;;0.61;54.32;101234.11;1673260;84;25823;-87
2021/03/20 10:46:06;;;;;;;7.25;4.12;;;;;;;0.77;55.36;101235.90;1686100;84;25599;-88
2021/03/20 10:48:33;;;;;;;7.22;3.62;;;;;;;1.01;56.36;101229.89;1672756;84;25334;-88
2021/03/20 10:51:04;;;;;;;7.85;3.92;;;;;;;1.27;53.81;101231.89;1687644;84;25685;-88
2021/03/20 10:53:42;;;;;;;6.78;4.28;;;;;;;1.28;54.14;101235.30;1685651;84;25566;-88
2021/03/20 10:56:31;;;;;;;8.15;3.62;;;;;;;1.23;53.81;101227.84;1684646;84;25697;-88
2021/03/20 10:59:00;;;;;;;6.03;3.80;;;;;;;1.14;53.75;101232.64;1681190;84;25757;-87
2021/03/20 11:01:35;;;;;;;7.22;4.12;;;;;;;1.16;53.83;101227.78;1684176;84;25807;-88
2021/03/20 11:04:03;;;;;;;10.03;4.70;;;;;;;1.36;54.80;101238.75;1686864;84;25709;-88
2021/03/20 11:06:31;;;;;;;8.68;4.55;;;;;;;1.49;49.18;101235.41;1685797;84;25561;-87
2021/03/20 11:09:22;;;;;;;10.05;4.55;;;;;;;1.41;50.74;101236.75;1687744;84;26294;-88
2021/03/20 11:11:50;;;;;;;13.88;6.60;;;;;;;1.31;51.54;101226.97;1686816;84;25770;-88
2021/03/20 11:14:21;;;;;;;13.08;4.83;;;;;;;1.11;51.07;101213.87;1668192;84;25765;-88
2021/03/20 11:17:03;;;;;;;7.92;3.40;;;;;;;1.00;49.78;101212.80;1687163;84;25442;-89
2021/03/20 11:19:40;;;;;;;10.70;4.83;;;;;;;1.04;50.21;101228.47;1688490;80;25442;-88
2021/03/20 11:22:27;;;;;;;10.18;4.37;;;;;;;0.94;51.54;101222.14;1737027;80;25861;-88
2021/03/20 11:25:00;;;;;;;10.82;4.92;;;;;;;0.94;51.54;101222.14;1739680;80;25514;-86
2021/03/20 11:27:34;;;;;;;7.80;3.75;;;;;;;1.03;51.09;101228.89;1736125;81;25630;-89
2021/03/20 11:30:17;;;;;;;12.33;4.15;;;;;;;0.98;50.96;101226.20;1738836;82;25829;-87
2021/03/20 11:32:46;;;;;;;5.22;2.90;;;;;;;0.92;48.30;101222.20;1739201;80;25666;-88
2021/03/20 11:35:26;;;;;;;12.63;4.17;;;;;;;0.98;51.28;101218.47;1717961;81;25681;-87
2021/03/20 11:37:59;;;;;;;6.55;3.65;;;;;;;1.01;51.21;101214.02;1754704;80;25260;-87
2021/03/20 11:40:39;;;;;;;9.98;4.22;;;;;;;1.05;50.21;101215.50;1722397;81;25280;-87
2021/03/20 11:43:10;;;;;;;11.05;4.12;;;;;;;1.13;51.25;101215.09;1752026;80;25697;-87
2021/03/20 11:45:40;;;;;;;5.95;3.30;;;;;;;1.19;50.11;101216.50;1747618;80;25219;-87
2021/03/20 11:48:35;;;;;;;14.23;6.00;;;;;;;1.10;51.00;101218.66;1744474;80;26423;-87
2021/03/20 11:51:09;;;;;;;8.13;3.85;;;;;;;0.87;49.32;101193.31;1728843;80;25624;-86
2021/03/20 11:53:50;;;;;;;10.82;4.67;;;;;;;0.87;49.32;101193.31;1750390;80;25680;-87
2021/03/20 11:56:35;;;;;;;7.20;3.77;;;;;;;0.84;48.69;101211.03;1746070;80;25915;-87
2021/03/20 11:59:44;;;;;;;10.05;4.45;;;;;;;0.78;49.09;101216.50;1747489;80;25810;-88
2021/03/20 12:02:25;;;;;;;7.62;3.50;;;;;;;0.75;49.48;101211.52;1744123;80;25677;-88
2021/03/20 12:05:17;;;;;;;8.05;3.05;;;;;;;0.76;49.66;101208.48;1743423;80;25697;-87
2021/03/20 12:07:46;;;;;;;7.17;3.30;;;;;;;0.74;49.28;101215.02;1746409;80;25816;-87
2021/03/20 12:10:23;;;;;;;5.85;2.77;;;;;;;0.73;49.29;101204.80;1729680;80;25662;-87
2021/03/20 12:12:55;;;;;;;7.53;3.67;;;;;;;0.72;49.20;101205.26;1746629;80;25936;-87
2021/03/20 12:15:27;;;;;;;7.62;3.17;;;;;;;0.72;49.75;101205.26;1746061;80;25689;-88